createdAt,value
2017-12-12T00:01:16.328Z,97878.67
2017-12-12T00:03:51.132Z,97889.72
2017-12-12T00:06:26.088Z,97893.35
2017-12-12T00:09:01.212Z,97896.79
2017-12-12T00:11:36.176Z,97908.02
2017-12-12T00:14:11.164Z,97910.21
2017-12-12T00:16:46.004Z,97918.45
2017-12-12T00:19:21.051Z,97910.53
2017-12-12T00:21:55.957Z,97917.45
2017-12-12T00:24:31.056Z,97933.39
2017-12-12T00:27:05.912Z,97930.53
2017-12-12T00:29:41.046Z,97938.14
2017-12-12T00:32:16.120Z,97938.52
2017-12-12T00:34:51.221Z,97950.19
2017-12-12T00:37:26.172Z,97958.77
2017-12-12T00:40:01.228Z,97967.48
2017-12-12T00:42:36.533Z,97975.95
2017-12-12T00:45:11.528Z,97976.56
2017-12-12T00:47:46.537Z,97986.90
2017-12-12T00:50:21.568Z,97983.05
2017-12-12T00:52:56.492Z,97994.70
2017-12-12T00:55:31.302Z,98002.05
2017-12-12T00:58:06.044Z,98006.08
2017-12-12T01:00:41.177Z,98017.17
2017-12-12T01:03:16.028Z,98018.91
2017-12-12T01:05:50.956Z,98028.45
2017-12-12T01:08:25.662Z,98027.66
2017-12-12T01:11:00.401Z,98032.83
2017-12-12T01:13:35.239Z,98039.46
2017-12-12T01:16:10.208Z,98042.22
2017-12-12T01:18:45.004Z,98047.73
2017-12-12T01:21:19.792Z,98053.29
2017-12-12T01:23:54.868Z,98063.44
2017-12-12T01:26:29.604Z,98067.72
2017-12-12T01:29:04.266Z,98077.72
2017-12-12T01:31:39.572Z,98083.53
2017-12-12T01:34:14.605Z,98098.81
2017-12-12T01:36:49.656Z,98095.52
2017-12-12T01:39:24.335Z,98108.22
2017-12-12T01:41:58.908Z,98116.06
2017-12-12T01:44:33.794Z,98123.74
2017-12-12T01:47:08.516Z,98131.63
2017-12-12T01:49:43.544Z,98141.78
2017-12-12T01:52:18.467Z,98149.95
2017-12-12T01:54:53.520Z,98152.95
2017-12-12T01:57:28.504Z,98157.87
2017-12-12T02:00:03.129Z,98145.95
2017-12-12T02:02:37.935Z,98169.53
2017-12-12T02:05:13.176Z,98178.22
2017-12-12T02:07:47.939Z,98184.64
2017-12-12T02:10:22.588Z,98198.81
2017-12-12T02:12:57.249Z,98200.28
2017-12-12T02:15:32.072Z,98209.52
2017-12-12T02:18:06.898Z,98211.50
2017-12-12T02:20:41.677Z,98218.61
2017-12-12T02:23:16.355Z,98229.59
2017-12-12T02:25:51.385Z,98242.45
2017-12-12T02:28:26.142Z,98246.88
2017-12-12T02:31:00.784Z,98255.36
2017-12-12T02:33:35.572Z,98259.64
2017-12-12T02:36:10.248Z,98263.53
2017-12-12T02:38:44.976Z,98275.97
2017-12-12T02:41:19.657Z,98284.30
2017-12-12T02:43:54.428Z,98286.51
2017-12-12T02:46:29.433Z,98291.73
2017-12-12T02:49:04.012Z,98295.18
2017-12-12T02:51:38.816Z,98304.57
2017-12-12T02:54:13.468Z,98312.55
2017-12-12T02:56:47.689Z,98325.06
2017-12-12T02:59:22.353Z,98334.42
2017-12-12T03:01:57.439Z,98338.47
2017-12-12T03:04:31.832Z,98341.56
2017-12-12T03:07:06.707Z,98355.50
2017-12-12T03:09:41.497Z,98360.70
2017-12-12T03:12:16.423Z,98368.42
2017-12-12T03:14:50.544Z,98371.97
2017-12-12T03:17:25.348Z,98385.45
2017-12-12T03:20:00.179Z,98397.81
2017-12-12T03:22:35.008Z,98400.70
2017-12-12T03:25:09.742Z,98404.51
2017-12-12T03:27:44.328Z,98404.70
2017-12-12T03:30:19.137Z,98418.06
2017-12-12T03:32:54.040Z,98432.52
2017-12-12T03:35:28.796Z,98450.91
2017-12-12T03:38:03.573Z,98459.39
2017-12-12T03:40:38.256Z,98467.05
2017-12-12T03:43:13.384Z,98468.22
2017-12-12T03:45:47.728Z,98475.92
2017-12-12T03:48:22.764Z,98484.22
2017-12-12T03:50:57.724Z,98495.59
2017-12-12T03:53:32.072Z,98504.52
2017-12-12T03:56:06.716Z,98522.20
2017-12-12T03:58:41.420Z,98533.62
2017-12-12T04:01:16.176Z,98545.42
2017-12-12T04:03:50.953Z,98558.59
2017-12-12T04:06:25.632Z,98569.81
2017-12-12T04:09:00.644Z,98572.25
2017-12-12T04:11:35.494Z,98590.86
2017-12-12T04:14:10.068Z,98589.84
2017-12-12T04:16:45.077Z,98602.67
2017-12-12T04:19:19.380Z,98616.91
2017-12-12T04:21:54.271Z,98627.95
2017-12-12T04:24:28.908Z,98649.59
2017-12-12T04:27:03.647Z,98651.74
2017-12-12T04:29:38.717Z,98659.70
2017-12-12T04:32:13.196Z,98668.45
2017-12-12T04:34:47.956Z,98670.45
2017-12-12T04:37:22.861Z,98678.59
2017-12-12T04:39:57.533Z,98691.45
2017-12-12T04:42:32.520Z,98714.67
2017-12-12T04:45:06.887Z,98720.25
2017-12-12T04:47:41.574Z,98731.23
2017-12-12T04:50:16.316Z,98740.31
2017-12-12T04:52:51.172Z,98755.58
2017-12-12T04:55:25.802Z,98772.48
2017-12-12T04:58:00.472Z,98771.56
2017-12-12T05:00:35.047Z,98787.42
2017-12-12T05:03:09.660Z,98798.11
2017-12-12T05:05:44.717Z,98809.53
2017-12-12T05:08:19.425Z,98811.30
2017-12-12T05:10:54.042Z,98830.89
2017-12-12T05:13:28.636Z,98840.98
2017-12-12T05:16:03.225Z,98846.42
2017-12-12T05:18:38.030Z,98858.98
2017-12-12T05:21:12.759Z,98864.91
2017-12-12T05:23:47.585Z,98875.16
2017-12-12T05:26:22.215Z,98884.05
2017-12-12T05:28:56.944Z,98902.40
2017-12-12T05:31:31.673Z,98903.41
2017-12-12T05:34:06.824Z,98900.98
2017-12-12T05:36:41.583Z,98912.59
2017-12-12T05:39:16.381Z,98925.23
2017-12-12T05:41:51.208Z,98934.82
2017-12-12T05:44:25.803Z,98943.50
2017-12-12T05:47:00.529Z,98958.70
2017-12-12T05:49:36.781Z,98970.79
2017-12-12T05:52:11.041Z,98976.34
2017-12-12T05:54:45.744Z,98993.70
2017-12-12T05:57:20.372Z,99006.84
2017-12-12T05:59:55.028Z,99021.95
2017-12-12T06:02:29.780Z,99019.12
2017-12-12T06:05:04.480Z,99029.47
2017-12-12T06:07:39.135Z,99042.97
2017-12-12T06:10:13.820Z,99044.38
2017-12-12T06:12:48.563Z,99061.20
2017-12-12T06:15:23.196Z,99071.78
2017-12-12T06:17:57.752Z,99091.83
2017-12-12T06:20:32.584Z,99094.28
2017-12-12T06:23:07.509Z,99097.83
2017-12-12T06:25:42.226Z,99109.52
2017-12-12T06:28:16.839Z,99116.35
2017-12-12T06:30:51.463Z,99129.22
2017-12-12T06:33:26.239Z,99137.81
2017-12-12T06:36:01.101Z,99132.45
2017-12-12T06:38:35.896Z,99141.37
2017-12-12T06:41:10.605Z,99148.89
2017-12-12T06:43:45.327Z,99149.97
2017-12-12T06:46:20.033Z,99162.16
2017-12-12T06:48:54.702Z,99163.66
2017-12-12T06:51:29.286Z,99170.75
2017-12-12T06:54:04.120Z,99183.44
2017-12-12T06:56:38.846Z,99186.04
2017-12-12T06:59:13.623Z,99194.33
2017-12-12T07:01:48.843Z,99198.06
2017-12-12T07:04:23.604Z,99205.33
2017-12-12T07:06:58.156Z,99209.75
2017-12-12T07:09:32.984Z,99224.80
2017-12-12T07:12:07.616Z,99233.61
2017-12-12T07:14:42.442Z,99235.56
2017-12-12T07:17:16.996Z,99244.61
2017-12-12T07:19:51.624Z,99245.55
2017-12-12T07:22:26.428Z,99259.89
2017-12-12T07:25:01.484Z,99261.81
2017-12-12T07:27:36.388Z,99269.09
2017-12-12T07:30:10.862Z,99277.25
2017-12-12T07:32:46.184Z,99282.36
2017-12-12T07:35:20.909Z,99275.94
2017-12-12T07:37:55.761Z,99294.25
2017-12-12T07:40:30.447Z,99307.00
2017-12-12T07:43:05.240Z,99323.27
2017-12-12T07:45:39.616Z,99327.16
2017-12-12T07:48:14.344Z,99331.94
2017-12-12T07:50:49.394Z,99340.79
2017-12-12T07:53:23.705Z,99341.88
2017-12-12T07:55:58.480Z,99354.74
2017-12-12T07:58:33.068Z,99362.16
2017-12-12T08:01:07.556Z,99370.83
2017-12-12T08:03:42.279Z,99379.49
2017-12-12T08:06:16.840Z,99380.82
2017-12-12T08:08:51.777Z,99383.66
2017-12-12T08:11:26.224Z,99389.91
2017-12-12T08:14:01.224Z,99393.78
2017-12-12T08:16:35.656Z,99406.18
2017-12-12T08:19:10.453Z,99413.02
2017-12-12T08:21:44.912Z,99422.33
2017-12-12T08:24:19.772Z,99428.30
2017-12-12T08:26:54.744Z,99434.88
2017-12-12T08:29:29.696Z,99447.11
2017-12-12T08:32:04.114Z,99454.95
2017-12-12T08:34:39.149Z,99458.95
2017-12-12T08:37:13.980Z,99461.69
2017-12-12T08:39:48.853Z,99457.97
2017-12-12T08:42:23.208Z,99472.30
2017-12-12T08:44:58.022Z,99489.47
2017-12-12T08:47:32.480Z,99496.77
2017-12-12T08:50:07.093Z,99507.42
2017-12-12T08:52:42.195Z,99507.63
2017-12-12T08:55:16.773Z,99513.84
2017-12-12T08:57:51.900Z,99521.86
2017-12-12T09:00:26.513Z,99525.73
2017-12-12T09:03:01.612Z,99522.98
2017-12-12T09:05:36.435Z,99534.14
2017-12-12T09:08:11.244Z,99531.94
2017-12-12T09:10:45.996Z,99543.13
2017-12-12T09:13:20.386Z,99560.50
2017-12-12T09:15:55.040Z,99567.85
2017-12-12T09:18:30.152Z,99569.02
2017-12-12T09:21:05.228Z,99575.64
2017-12-12T09:23:40.036Z,99580.02
2017-12-12T09:26:14.856Z,99585.22
2017-12-12T09:28:49.452Z,99598.28
2017-12-12T09:31:24.472Z,99605.58
2017-12-12T09:33:59.200Z,99605.89
2017-12-12T09:36:33.952Z,99601.22
2017-12-12T09:39:08.676Z,99607.06
2017-12-12T09:41:43.475Z,99621.34
2017-12-12T09:44:18.076Z,99629.64
2017-12-12T09:46:52.784Z,99635.44
2017-12-12T09:49:27.744Z,99645.46
2017-12-12T09:52:02.250Z,99651.83
2017-12-12T09:54:37.120Z,99665.59
2017-12-12T09:57:11.536Z,99665.03
2017-12-12T09:59:46.510Z,99680.77
2017-12-12T10:02:21.100Z,99688.56
2017-12-12T10:04:56.038Z,99690.96
2017-12-12T10:07:30.888Z,99686.52
2017-12-12T10:10:05.868Z,99682.97
2017-12-12T10:12:40.720Z,99692.72
2017-12-12T10:15:15.549Z,99697.42
2017-12-12T10:17:50.333Z,99707.72
2017-12-12T10:20:25.080Z,99710.30
2017-12-12T10:22:59.853Z,99717.11
2017-12-12T10:25:34.756Z,99723.81
2017-12-12T10:28:09.652Z,99725.47
2017-12-12T10:30:44.055Z,99734.44
2017-12-12T10:33:19.136Z,99736.82
2017-12-12T10:35:53.897Z,99751.83
2017-12-12T10:38:28.440Z,99756.69
2017-12-12T10:41:03.169Z,99763.08
2017-12-12T10:43:37.824Z,99772.04
2017-12-12T10:46:12.988Z,99773.37
2017-12-12T10:48:47.177Z,99785.05
2017-12-12T10:51:21.700Z,99784.98
2017-12-12T10:53:56.647Z,99791.36
2017-12-12T10:56:30.708Z,99794.94
2017-12-12T10:59:05.477Z,99802.57
2017-12-12T11:01:40.128Z,99799.88
2017-12-12T11:04:15.292Z,99807.89
2017-12-12T11:06:50.285Z,99818.69
2017-12-12T11:09:25.018Z,99819.13
2017-12-12T11:11:59.748Z,99833.53
2017-12-12T11:14:34.504Z,99825.67
2017-12-12T11:17:09.024Z,99828.55
2017-12-12T11:19:43.404Z,99839.66
2017-12-12T11:22:18.397Z,99841.94
2017-12-12T11:24:53.012Z,99849.02
2017-12-12T11:27:27.579Z,99853.12
2017-12-12T11:30:02.132Z,99864.06
2017-12-12T11:32:36.572Z,99865.47
2017-12-12T11:35:11.179Z,99870.78
2017-12-12T11:37:46.232Z,99875.47
2017-12-12T11:40:20.959Z,99878.59
2017-12-12T11:42:55.707Z,99893.77
2017-12-12T11:45:30.545Z,99897.44
2017-12-12T11:48:05.299Z,99914.98
2017-12-12T11:50:39.862Z,99915.92
2017-12-12T11:53:14.591Z,99918.28
2017-12-12T11:55:49.057Z,99921.69
2017-12-12T11:58:23.972Z,99919.68
2017-12-12T12:00:58.408Z,99925.39
2017-12-12T12:03:33.110Z,99936.62
2017-12-12T12:06:07.680Z,99946.32
2017-12-12T12:08:42.256Z,99955.41
2017-12-12T12:11:17.406Z,99957.33
2017-12-12T12:13:51.817Z,99969.39
2017-12-12T12:16:26.346Z,99970.42
2017-12-12T12:19:01.232Z,99968.19
2017-12-12T12:21:35.728Z,99978.52
2017-12-12T12:24:10.307Z,99976.26
2017-12-12T12:26:44.953Z,99988.32
2017-12-12T12:29:19.558Z,99991.55
2017-12-12T12:31:54.460Z,99994.02
2017-12-12T12:34:29.017Z,100005.98
2017-12-12T12:37:04.405Z,100008.50
2017-12-12T12:39:39.684Z,100033.98
2017-12-12T12:42:14.232Z,100018.48
2017-12-12T12:44:48.741Z,100030.14
2017-12-12T12:47:23.412Z,100027.98
2017-12-12T12:49:58.360Z,100040.48
2017-12-12T12:52:32.809Z,100048.20
2017-12-12T12:55:07.903Z,100059.34
2017-12-12T12:57:42.907Z,100063.78
2017-12-12T13:00:17.889Z,100069.97
2017-12-12T13:02:52.044Z,100075.14
2017-12-12T13:05:27.076Z,100079.41
2017-12-12T13:08:01.826Z,100087.48
2017-12-12T13:10:36.480Z,100097.41
2017-12-12T13:13:10.885Z,100093.56
2017-12-12T13:15:45.593Z,100099.52
2017-12-12T13:18:21.603Z,100099.31
2017-12-12T13:20:56.796Z,100112.16
2017-12-12T13:23:32.141Z,100116.88
2017-12-12T13:26:06.991Z,100120.03
2017-12-12T13:28:41.773Z,100126.62
2017-12-12T13:31:16.553Z,100127.75
2017-12-12T13:33:51.273Z,100131.15
2017-12-12T13:36:25.672Z,100138.09
2017-12-12T13:39:00.613Z,100156.28
2017-12-12T13:41:35.365Z,100149.41
2017-12-12T13:44:10.193Z,100161.11
2017-12-12T13:46:44.935Z,100163.62
2017-12-12T13:49:19.764Z,100174.24
2017-12-12T13:51:54.499Z,100179.72
2017-12-12T13:54:29.320Z,100190.48
2017-12-12T13:57:04.252Z,100200.58
2017-12-12T13:59:38.984Z,100202.98
2017-12-12T14:02:13.817Z,100204.36
2017-12-12T14:04:48.773Z,100215.17
2017-12-12T14:07:23.446Z,100227.13
2017-12-12T14:09:58.174Z,100228.94
2017-12-12T14:12:32.802Z,100238.05
2017-12-12T14:15:07.885Z,100244.08
2017-12-12T14:17:42.908Z,100246.25
2017-12-12T14:20:17.744Z,100253.72
2017-12-12T14:22:52.568Z,100259.03
2017-12-12T14:25:27.193Z,100269.35
2017-12-12T14:28:01.977Z,100270.52
2017-12-12T14:30:36.780Z,100274.97
2017-12-12T14:33:11.433Z,100284.80
2017-12-12T14:35:46.245Z,100291.63
2017-12-12T14:38:20.861Z,100297.34
2017-12-12T14:40:55.673Z,100304.72
2017-12-12T14:43:30.400Z,100309.50
2017-12-12T14:46:05.121Z,100310.87
2017-12-12T14:48:40.048Z,100321.50
2017-12-12T14:51:14.881Z,100328.05
2017-12-12T14:53:49.533Z,100335.52
2017-12-12T14:56:24.347Z,100350.25
2017-12-12T14:58:59.088Z,100352.51
2017-12-12T15:01:33.850Z,100352.86
2017-12-12T15:04:08.520Z,100362.08
2017-12-12T15:06:43.252Z,100367.28
2017-12-12T15:09:17.958Z,100367.64
2017-12-12T15:11:52.813Z,100372.73
2017-12-12T15:14:27.370Z,100380.02
2017-12-12T15:17:02.160Z,100388.14
2017-12-12T15:19:37.024Z,100392.02
2017-12-12T15:22:11.924Z,100394.98
2017-12-12T15:24:46.848Z,100403.98
2017-12-12T15:27:21.804Z,100405.31
2017-12-12T15:29:56.280Z,100415.41
2017-12-12T15:32:31.294Z,100418.32
2017-12-12T15:35:05.933Z,100416.59
2017-12-12T15:37:40.486Z,100426.52
2017-12-12T15:40:15.196Z,100435.77
2017-12-12T15:42:50.205Z,100442.67
2017-12-12T15:45:24.808Z,100445.54
2017-12-12T15:47:59.276Z,100461.44
2017-12-12T15:50:34.336Z,100467.69
2017-12-12T15:53:08.933Z,100469.77
2017-12-12T15:55:43.564Z,100469.98
2017-12-12T15:58:18.572Z,100481.90
2017-12-12T16:00:53.397Z,100483.28
2017-12-12T16:03:28.309Z,100489.13
2017-12-12T16:06:03.032Z,100491.83
2017-12-12T16:08:37.868Z,100491.78
2017-12-12T16:11:12.689Z,100500.69
2017-12-12T16:13:47.787Z,100506.92
2017-12-12T16:16:22.496Z,100508.20
2017-12-12T16:18:57.225Z,100507.28
2017-12-12T16:21:32.029Z,100515.95
2017-12-12T16:24:06.782Z,100522.13
2017-12-12T16:26:41.554Z,100529.13
2017-12-12T16:29:16.708Z,100527.61
2017-12-12T16:31:51.507Z,100536.30
2017-12-12T16:34:25.972Z,100536.78
2017-12-12T16:37:00.782Z,100542.98
2017-12-12T16:39:35.664Z,100550.92
2017-12-12T16:42:10.673Z,100553.41
2017-12-12T16:44:45.297Z,100554.82
2017-12-12T16:47:20.020Z,100560.09
2017-12-12T16:49:54.760Z,100562.80
2017-12-12T16:52:29.282Z,100567.94
2017-12-12T16:55:04.322Z,100578.88
2017-12-12T16:57:38.852Z,100588.59
2017-12-12T17:00:13.688Z,100592.05
2017-12-12T17:02:48.503Z,100596.04
2017-12-12T17:05:23.313Z,100603.83
2017-12-12T17:07:58.053Z,100604.06
2017-12-12T17:10:33.000Z,100607.70
2017-12-12T17:13:07.605Z,100613.23
2017-12-12T17:15:42.412Z,100611.05
2017-12-12T17:18:17.192Z,100623.16
2017-12-12T17:20:52.089Z,100623.65
2017-12-12T17:23:26.944Z,100630.91
2017-12-12T17:26:01.882Z,100628.88
2017-12-12T17:28:36.731Z,100630.64
2017-12-12T17:31:11.452Z,100626.42
2017-12-12T17:33:46.665Z,100641.97
2017-12-12T17:36:21.513Z,100643.97
2017-12-12T17:38:56.037Z,100653.18
2017-12-12T17:41:30.949Z,100650.34
2017-12-12T17:44:05.817Z,100657.76
2017-12-12T17:46:40.520Z,100663.61
2017-12-12T17:49:15.361Z,100663.84
2017-12-12T17:51:50.125Z,100666.59
2017-12-12T17:54:24.737Z,100670.17
2017-12-12T17:56:59.385Z,100676.78
2017-12-12T17:59:33.822Z,100678.86
2017-12-12T18:02:08.944Z,100683.62
2017-12-12T18:04:43.668Z,100695.43
2017-12-12T18:07:18.572Z,100693.66
2017-12-12T18:09:53.372Z,100697.56
2017-12-12T18:12:28.199Z,100701.55
2017-12-12T18:15:03.060Z,100705.14
2017-12-12T18:17:37.788Z,100709.17
2017-12-12T18:20:12.605Z,100710.29
2017-12-12T18:22:47.336Z,100714.99
2017-12-12T18:25:22.054Z,100724.02
2017-12-12T18:27:56.956Z,100723.76
2017-12-12T18:30:31.949Z,100730.00
2017-12-12T18:33:06.572Z,100727.93
2017-12-12T18:35:41.387Z,100732.28
2017-12-12T18:38:16.284Z,100739.37
2017-12-12T18:40:51.152Z,100733.50
2017-12-12T18:43:26.133Z,100744.27
2017-12-12T18:46:00.969Z,100752.89
2017-12-12T18:48:35.944Z,100752.05
2017-12-12T18:51:10.897Z,100751.48
2017-12-12T18:53:45.719Z,100757.81
2017-12-12T18:56:20.432Z,100768.28
2017-12-12T18:58:55.191Z,100770.59
2017-12-12T19:01:29.600Z,100771.60
2017-12-12T19:04:04.461Z,100771.31
2017-12-12T19:06:39.037Z,100772.47
2017-12-12T19:09:14.268Z,100778.16
2017-12-12T19:11:49.129Z,100775.05
2017-12-12T19:14:23.851Z,100770.26
2017-12-12T19:16:58.401Z,100774.28
2017-12-12T19:19:33.136Z,100773.56
2017-12-12T19:22:07.644Z,100778.61
2017-12-12T19:24:42.124Z,100790.25
2017-12-12T19:27:17.293Z,100795.69
2017-12-12T19:29:52.045Z,100798.91
2017-12-12T19:32:26.457Z,100800.59
2017-12-12T19:35:01.244Z,100795.36
2017-12-12T19:37:36.228Z,100800.28
2017-12-12T19:40:11.060Z,100807.84
2017-12-12T19:42:45.624Z,100807.16
2017-12-12T19:45:20.441Z,100803.66
2017-12-12T19:47:55.272Z,100802.33
2017-12-12T19:50:30.164Z,100812.19
2017-12-12T19:53:04.849Z,100805.95
2017-12-12T19:55:39.533Z,100798.22
2017-12-12T19:58:14.531Z,100809.25
2017-12-12T20:00:49.584Z,100821.86
2017-12-12T20:03:24.436Z,100816.19
2017-12-12T20:05:59.269Z,100823.67
2017-12-12T20:08:33.987Z,100818.47
2017-12-12T20:11:08.897Z,100820.25
2017-12-12T20:13:43.332Z,100821.26
2017-12-12T20:16:18.381Z,100828.22
2017-12-12T20:18:53.005Z,100820.41
2017-12-12T20:21:27.404Z,100829.99
2017-12-12T20:24:02.028Z,100834.34
2017-12-12T20:26:36.755Z,100847.63
2017-12-12T20:29:11.924Z,100842.72
2017-12-12T20:31:46.748Z,100851.70
2017-12-12T20:34:21.284Z,100841.47
2017-12-12T20:36:56.076Z,100841.76
2017-12-12T20:39:30.916Z,100854.97
2017-12-12T20:42:05.712Z,100855.30
2017-12-12T20:44:40.591Z,100846.95
2017-12-12T20:47:15.372Z,100852.62
2017-12-12T20:49:50.169Z,100856.05
2017-12-12T20:52:25.266Z,100845.86
2017-12-12T20:55:00.115Z,100845.42
2017-12-12T20:57:34.978Z,100845.05
2017-12-12T21:00:09.492Z,100844.66
2017-12-12T21:02:44.604Z,100838.73
2017-12-12T21:05:19.529Z,100843.13
2017-12-12T21:07:54.284Z,100845.34
2017-12-12T21:10:29.082Z,100843.48
2017-12-12T21:13:03.608Z,100836.89
2017-12-12T21:15:38.312Z,100832.81
2017-12-12T21:18:13.520Z,100838.02
2017-12-12T21:20:48.524Z,100832.53
2017-12-12T21:23:23.176Z,100829.44
2017-12-12T21:25:57.915Z,100833.74
2017-12-12T21:28:32.797Z,100834.06
2017-12-12T21:31:07.320Z,100836.15
2017-12-12T21:33:42.067Z,100834.22
2017-12-12T21:36:16.693Z,100828.14
2017-12-12T21:38:51.525Z,100846.73
2017-12-12T21:41:26.230Z,100836.11
2017-12-12T21:44:01.117Z,100835.23
2017-12-12T21:46:35.856Z,100840.81
2017-12-12T21:49:10.560Z,100839.73
2017-12-12T21:51:45.316Z,100836.55
2017-12-12T21:54:20.030Z,100828.95
2017-12-12T21:56:54.756Z,100835.95
2017-12-12T21:59:29.584Z,100828.14
2017-12-12T22:02:03.880Z,100827.25
2017-12-12T22:04:39.124Z,100836.55
2017-12-12T22:07:14.040Z,100833.41
2017-12-12T22:09:48.943Z,100836.91
2017-12-12T22:12:23.832Z,100841.34
2017-12-12T22:14:58.671Z,100837.18
2017-12-12T22:17:33.495Z,100853.45
2017-12-12T22:20:08.213Z,100854.41
2017-12-12T22:22:43.068Z,100848.52
2017-12-12T22:25:17.888Z,100843.73
2017-12-12T22:27:52.744Z,100847.39
2017-12-12T22:30:27.324Z,100843.44
2017-12-12T22:33:02.172Z,100838.17
2017-12-12T22:35:37.100Z,100837.05
2017-12-12T22:38:11.935Z,100847.52
2017-12-12T22:40:46.579Z,100843.83
2017-12-12T22:43:21.588Z,100849.02
2017-12-12T22:45:56.293Z,100857.44
2017-12-12T22:48:31.353Z,100854.63
2017-12-12T22:51:06.192Z,100858.98
2017-12-12T22:53:41.144Z,100862.36
2017-12-12T22:56:15.957Z,100858.38
2017-12-12T22:58:50.654Z,100850.88
2017-12-12T23:01:25.403Z,100854.55
2017-12-12T23:04:00.316Z,100860.78
2017-12-12T23:06:34.941Z,100862.67
2017-12-12T23:09:09.788Z,100857.31
2017-12-12T23:11:44.498Z,100856.14
2017-12-12T23:14:19.432Z,100847.22
2017-12-12T23:16:54.317Z,100851.75
2017-12-12T23:19:29.060Z,100852.38
2017-12-12T23:22:03.732Z,100846.08
2017-12-12T23:24:38.888Z,100838.59
2017-12-12T23:27:13.507Z,100845.67
2017-12-12T23:29:48.274Z,100841.92
2017-12-12T23:32:22.660Z,100841.55
2017-12-12T23:34:57.372Z,100835.20
2017-12-12T23:37:32.425Z,100835.84
2017-12-12T23:40:07.328Z,100840.63
2017-12-12T23:42:42.080Z,100840.27
2017-12-12T23:45:16.914Z,100840.82
2017-12-12T23:47:51.540Z,100839.69
2017-12-12T23:50:26.387Z,100847.91
2017-12-12T23:53:01.216Z,100842.92
2017-12-12T23:55:36.146Z,100851.30
2017-12-12T23:58:10.952Z,100841.02
